Time;durP1;ratioP1;P1;durP2;ratioP2;P2;SDS_P1;SDS_P2;PMS_P1;PMS_P2;Temp;Humidity;BMP_temperature;BMP_pressure;BME280_temperature;BME280_humidity;BME280_pressure;Samples;Min_cycle;Max_cycle;Signal;HPM_P1;HPM_P2
2021/12/09 00:01:51;;;;;;;25.65;16.50;;;;;;;5.09;100.00;94808.31;5019464;28;20068;-50
2021/12/09 00:04:30;;;;;;;26.75;16.90;;;;;;;4.66;100.00;94818.56;5013864;28;20080;-55
2021/12/09 00:07:00;;;;;;;24.08;17.08;;;;;;;5.30;100.00;94811.44;5013774;28;20763;-48
2021/12/09 00:09:31;;;;;;;24.02;16.48;;;;;;;5.26;100.00;94812.69;5012445;28;20688;-45
2021/12/09 00:12:00;;;;;;;24.75;16.23;;;;;;;5.08;100.00;94825.78;5018774;28;20049;-46
2021/12/09 00:14:30;;;;;;;24.27;16.75;;;;;;;4.81;100.00;94836.31;5012608;28;20096;-47
2021/12/09 00:17:01;;;;;;;24.10;17.52;;;;;;;5.39;100.00;94826.19;5017702;28;20080;-46
2021/12/09 00:19:30;;;;;;;22.88;16.60;;;;;;;5.13;100.00;94838.41;5025934;28;20089;-49
2021/12/09 00:21:59;;;;;;;24.08;16.88;;;;;;;5.37;100.00;94840.41;5013020;28;20086;-53
2021/12/09 00:24:27;;;;;;;23.08;15.93;;;;;;;5.27;100.00;94856.16;5012682;28;20065;-47
2021/12/09 00:26:57;;;;;;;22.90;15.63;;;;;;;4.53;100.00;94852.03;5017748;28;20068;-47
2021/12/09 00:29:26;;;;;;;24.60;15.98;;;;;;;4.56;100.00;94832.66;5002239;28;20133;-47
2021/12/09 00:31:54;;;;;;;24.10;15.95;;;;;;;5.01;100.00;94827.38;5019675;28;20065;-47
2021/12/09 00:34:29;;;;;;;22.85;15.70;;;;;;;5.35;100.00;94830.06;5011410;28;20100;-48
2021/12/09 00:37:02;;;;;;;22.00;15.70;;;;;;;5.41;100.00;94828.66;5013462;28;20572;-47
2021/12/09 00:39:30;;;;;;;23.77;16.33;;;;;;;5.50;100.00;94819.88;5013886;28;20108;-50
2021/12/09 00:42:00;;;;;;;20.15;15.70;;;;;;;5.59;100.00;94821.56;5025491;28;20080;-48
2021/12/09 00:44:47;;;;;;;22.27;15.80;;;;;;;5.72;100.00;94829.00;5010072;28;20168;-49
2021/12/09 00:47:16;;;;;;;21.17;15.07;;;;;;;5.76;100.00;94825.09;5024755;28;20444;-50
2021/12/09 00:49:45;;;;;;;24.38;16.33;;;;;;;5.84;100.00;94832.97;5011053;28;20076;-47
2021/12/09 00:52:14;;;;;;;22.50;16.25;;;;;;;5.70;100.00;94838.78;5015040;28;20080;-50
2021/12/09 00:54:44;;;;;;;23.17;16.60;;;;;;;5.87;100.00;94845.75;5017891;28;20061;-46
2021/12/09 00:57:14;;;;;;;24.30;16.65;;;;;;;5.79;100.00;94843.09;5009469;28;20081;-51
2021/12/09 00:59:42;;;;;;;22.92;16.05;;;;;;;6.01;100.00;94854.84;5014553;28;20069;-47
2021/12/09 01:02:12;;;;;;;22.33;15.73;;;;;;;6.02;100.00;94845.19;5016368;28;20100;-50
2021/12/09 01:04:41;;;;;;;25.90;16.55;;;;;;;5.98;100.00;94849.09;5011736;28;20065;-51
2021/12/09 01:07:09;;;;;;;24.77;16.55;;;;;;;5.77;100.00;94852.06;5021003;28;20066;-49
2021/12/09 01:09:38;;;;;;;21.70;15.43;;;;;;;5.83;100.00;94851.47;5017681;28;20077;-49
2021/12/09 01:12:08;;;;;;;23.58;16.50;;;;;;;5.93;100.00;94852.19;5012392;28;20135;-48
2021/12/09 01:14:38;;;;;;;23.70;16.13;;;;;;;5.88;100.00;94855.25;5020779;28;20076;-45
2021/12/09 01:17:09;;;;;;;26.25;16.10;;;;;;;6.04;100.00;94862.38;5015844;28;20057;-45
2021/12/09 01:19:38;;;;;;;22.95;15.43;;;;;;;6.04;100.00;94879.88;5015930;28;20066;-51
2021/12/09 01:22:07;;;;;;;25.65;17.33;;;;;;;5.78;100.00;94885.09;5014477;28;20068;-47
2021/12/09 01:24:36;;;;;;;23.58;16.30;;;;;;;5.28;100.00;94896.19;5011793;28;20096;-50
2021/12/09 01:27:05;;;;;;;25.23;16.35;;;;;;;5.78;100.00;94875.47;5012214;28;20547;-46
2021/12/09 01:29:37;;;;;;;25.60;16.75;;;;;;;5.94;100.00;94872.16;5017146;28;20148;-50
2021/12/09 01:32:10;;;;;;;23.60;16.25;;;;;;;5.82;100.00;94868.94;5011765;28;20508;-47
2021/12/09 01:34:38;;;;;;;24.55;16.67;;;;;;;5.65;100.00;94854.97;5015763;28;20506;-50
2021/12/09 01:37:07;;;;;;;23.65;15.25;;;;;;;5.47;100.00;94839.31;5013815;28;20069;-49
2021/12/09 01:39:36;;;;;;;25.15;16.25;;;;;;;5.43;100.00;94842.38;5011638;28;20080;-52
2021/12/09 01:42:05;;;;;;;27.80;15.43;;;;;;;5.18;100.00;94846.59;5020551;28;20065;-47
2021/12/09 01:44:33;;;;;;;25.95;15.30;;;;;;;5.04;100.00;94841.94;5020279;28;20107;-47
2021/12/09 01:47:02;;;;;;;25.75;16.73;;;;;;;5.38;100.00;94839.41;5016569;28;20058;-47
2021/12/09 01:49:32;;;;;;;29.30;15.65;;;;;;;5.21;100.00;94851.53;5017704;28;20073;-48
2021/12/09 01:52:00;;;;;;;27.85;16.42;;;;;;;5.31;100.00;94859.28;5018383;28;20061;-49
2021/12/09 01:54:29;;;;;;;29.10;15.80;;;;;;;5.53;100.00;94863.19;5012660;28;20069;-50
2021/12/09 01:56:57;;;;;;;23.67;15.90;;;;;;;5.51;100.00;94859.94;5021677;28;20062;-51
2021/12/09 01:59:26;;;;;;;25.42;15.40;;;;;;;5.28;100.00;94873.47;5012909;28;20446;-48
2021/12/09 02:01:55;;;;;;;26.70;16.50;;;;;;;5.31;100.00;94875.78;5021878;28;20677;-47
2021/12/09 02:04:24;;;;;;;28.42;15.48;;;;;;;5.15;100.00;94878.25;5012698;28;20076;-52
2021/12/09 02:06:54;;;;;;;26.60;15.60;;;;;;;4.95;100.00;94870.56;5020035;28;20062;-49
2021/12/09 02:09:23;;;;;;;24.88;15.45;;;;;;;4.78;100.00;94884.44;5024164;28;20069;-47
2021/12/09 02:11:51;;;;;;;20.83;13.98;;;;;;;4.55;100.00;94875.41;5014703;28;20061;-47
2021/12/09 02:14:20;;;;;;;23.85;15.38;;;;;;;4.51;100.00;94880.91;5019323;28;20064;-47
2021/12/09 02:16:48;;;;;;;22.00;14.45;;;;;;;4.34;100.00;94875.66;5019698;28;20073;-52
2021/12/09 02:19:17;;;;;;;25.00;14.68;;;;;;;4.18;100.00;94881.50;5019092;28;20084;-50
2021/12/09 02:21:46;;;;;;;22.65;14.50;;;;;;;4.24;100.00;94884.34;5014409;28;21765;-49
2021/12/09 02:24:16;;;;;;;22.48;14.55;;;;;;;4.38;100.00;94883.03;5018074;28;20535;-50
2021/12/09 02:26:47;;;;;;;21.75;13.82;;;;;;;4.43;100.00;94875.59;5013224;28;20062;-52
2021/12/09 02:29:16;;;;;;;;;;;;;;;4.38;100.00;94874.41;5025836;28;20072;-48
2021/12/09 02:31:44;;;;;;;17.58;12.10;;;;;;;3.81;100.00;94882.31;5019092;28;20049;-50
2021/12/09 02:34:13;;;;;;;21.92;13.63;;;;;;;4.17;100.00;94882.47;4996102;28;20114;-48
2021/12/09 02:36:43;;;;;;;22.05;13.70;;;;;;;4.16;100.00;94886.84;5021228;28;21541;-49
2021/12/09 02:39:14;;;;;;;22.15;13.35;;;;;;;4.14;100.00;94890.59;4996514;28;20525;-46
2021/12/09 02:41:44;;;;;;;19.58;12.95;;;;;;;4.08;100.00;94889.34;5010280;28;20072;-51
2021/12/09 02:44:17;;;;;;;22.05;13.70;;;;;;;4.00;100.00;94882.25;5021707;28;20056;-51
2021/12/09 02:46:46;;;;;;;18.60;12.20;;;;;;;4.02;100.00;94887.31;5011163;28;20073;-47
2021/12/09 02:49:17;;;;;;;20.08;13.05;;;;;;;4.31;100.00;94882.00;5011715;28;20078;-46
2021/12/09 02:51:48;;;;;;;16.33;11.48;;;;;;;4.04;100.00;94883.59;5015295;28;20417;-45
2021/12/09 02:54:19;;;;;;;15.52;10.95;;;;;;;4.04;100.00;94888.81;4995249;28;20042;-50
2021/12/09 02:56:50;;;;;;;17.65;11.60;;;;;;;4.35;100.00;94880.72;5013110;28;20076;-47
2021/12/09 02:59:19;;;;;;;19.05;12.00;;;;;;;4.25;100.00;94879.94;5025331;28;20079;-49
2021/12/09 03:01:57;;;;;;;17.65;12.07;;;;;;;4.46;100.00;94870.06;5012118;28;20065;-50
2021/12/09 03:04:27;;;;;;;17.23;12.23;;;;;;;4.42;100.00;94881.78;5013422;28;20093;-50
2021/12/09 03:06:56;;;;;;;16.00;10.85;;;;;;;4.63;100.00;94891.16;5016017;28;20045;-47
2021/12/09 03:09:27;;;;;;;18.10;11.48;;;;;;;4.65;100.00;94889.22;5012243;28;20077;-49
2021/12/09 03:11:58;;;;;;;19.50;11.82;;;;;;;4.60;100.00;94894.88;5016174;28;20069;-48
2021/12/09 03:14:27;;;;;;;19.27;11.18;;;;;;;4.26;100.00;94905.06;5012558;28;20141;-49
2021/12/09 03:16:55;;;;;;;18.35;11.48;;;;;;;4.42;100.00;94909.66;5013574;28;20463;-46
2021/12/09 03:19:24;;;;;;;17.77;11.63;;;;;;;4.58;100.00;94914.28;5014024;28;20081;-55
2021/12/09 03:21:54;;;;;;;;;;;;;;;4.49;100.00;94908.94;5014572;28;20546;-48
2021/12/09 03:24:22;;;;;;;18.63;11.50;;;;;;;4.90;100.00;94914.59;5016996;28;20411;-50
2021/12/09 03:26:55;;;;;;;20.48;11.52;;;;;;;4.81;100.00;94923.31;5019340;28;20092;-46
2021/12/09 03:29:25;;;;;;;18.63;12.32;;;;;;;5.05;100.00;94927.16;5009847;28;20061;-46
2021/12/09 03:31:55;;;;;;;18.35;11.73;;;;;;;5.02;100.00;94933.47;5016623;28;20068;-47
2021/12/09 03:34:27;;;;;;;18.45;12.18;;;;;;;5.00;100.00;94931.03;5014855;28;20081;-48
2021/12/09 03:36:58;;;;;;;21.33;12.35;;;;;;;5.22;100.00;94940.22;5015283;28;20811;-51
2021/12/09 03:39:29;;;;;;;18.67;12.18;;;;;;;5.55;100.00;94947.53;5017621;28;20096;-51
2021/12/09 03:42:00;;;;;;;17.30;11.45;;;;;;;5.30;100.00;94944.72;5022660;28;20251;-45
2021/12/09 03:44:29;;;;;;;17.15;12.25;;;;;;;5.14;100.00;94947.16;5009763;28;20081;-44
2021/12/09 03:47:00;;;;;;;16.45;11.23;;;;;;;5.18;100.00;94951.13;5021566;28;20072;-50
2021/12/09 03:49:29;;;;;;;15.80;11.05;;;;;;;4.82;100.00;94948.47;5016597;28;20085;-47
2021/12/09 03:51:57;;;;;;;16.20;11.55;;;;;;;4.69;100.00;94948.00;5015416;28;20084;-44
2021/12/09 03:54:28;;;;;;;15.32;11.02;;;;;;;4.50;100.00;94938.47;5012771;28;20073;-51
2021/12/09 03:56:56;;;;;;;;;;;;;;;4.37;100.00;94933.59;5013515;28;20076;-49
2021/12/09 03:59:26;;;;;;;15.27;10.55;;;;;;;4.41;100.00;94940.16;5013500;28;19963;-48
2021/12/09 04:01:55;;;;;;;15.88;10.43;;;;;;;3.96;100.00;94943.50;5013471;28;20065;-45
2021/12/09 04:04:24;;;;;;;17.60;11.90;;;;;;;4.40;100.00;94945.53;5010759;28;20108;-44
2021/12/09 04:06:52;;;;;;;17.10;11.30;;;;;;;4.16;100.00;94939.00;5019192;28;20093;-48
2021/12/09 04:09:22;;;;;;;18.85;11.63;;;;;;;4.37;100.00;94946.66;5014865;28;20066;-50
2021/12/09 04:11:51;;;;;;;15.85;11.52;;;;;;;4.25;100.00;94963.44;5009584;28;20077;-48
2021/12/09 04:14:20;;;;;;;16.88;11.38;;;;;;;4.35;100.00;94968.63;5010834;28;20065;-44
2021/12/09 04:16:50;;;;;;;16.25;10.85;;;;;;;4.62;100.00;94981.69;5011905;28;20088;-47
2021/12/09 04:19:19;;;;;;;18.27;11.77;;;;;;;4.68;100.00;94978.53;5013139;28;20104;-47
2021/12/09 04:21:47;;;;;;;17.58;11.25;;;;;;;4.64;100.00;94976.31;4996355;28;20607;-45
2021/12/09 04:24:16;;;;;;;18.35;11.98;;;;;;;4.27;100.00;94966.75;5011357;28;20073;-45
2021/12/09 04:26:47;;;;;;;16.58;11.45;;;;;;;4.55;100.00;94972.00;5017687;28;20100;-46
2021/12/09 04:29:15;;;;;;;;;;;;;;;4.08;100.00;94962.38;5015133;28;20057;-46
2021/12/09 04:31:47;;;;;;;14.32;10.50;;;;;;;4.00;100.00;94957.88;5011006;28;19948;-48
2021/12/09 04:34:17;;;;;;;16.65;10.80;;;;;;;3.90;100.00;94964.09;5014529;28;20081;-51
2021/12/09 04:36:46;;;;;;;15.77;10.20;;;;;;;3.66;100.00;94972.38;5016746;28;20532;-49
2021/12/09 04:39:15;;;;;;;16.42;10.30;;;;;;;3.57;100.00;94974.81;5007636;28;20065;-48
2021/12/09 04:41:44;;;;;;;14.48;10.32;;;;;;;3.67;100.00;94955.75;5024982;28;20061;-44
2021/12/09 04:44:13;;;;;;;16.85;10.77;;;;;;;3.63;100.00;94954.41;5020572;28;20598;-49
2021/12/09 04:46:41;;;;;;;16.30;10.73;;;;;;;3.51;100.00;94956.31;5013448;28;20073;-43
2021/12/09 04:49:10;;;;;;;17.50;10.07;;;;;;;3.52;100.00;94965.78;5016880;28;20619;-45
2021/12/09 04:51:40;;;;;;;15.75;10.65;;;;;;;3.41;100.00;94966.75;5007554;28;20595;-50
2021/12/09 04:54:10;;;;;;;15.45;10.38;;;;;;;3.35;100.00;94959.50;5008428;28;20065;-52
2021/12/09 04:56:38;;;;;;;15.10;9.77;;;;;;;3.38;100.00;94961.00;5011508;28;20073;-42
2021/12/09 04:59:07;;;;;;;14.77;9.57;;;;;;;3.38;100.00;94972.25;5014647;28;20091;-48
2021/12/09 05:01:36;;;;;;;14.60;10.35;;;;;;;3.43;100.00;94979.63;5011523;28;20081;-46
2021/12/09 05:04:05;;;;;;;15.18;9.95;;;;;;;3.41;100.00;94989.41;5012622;28;20092;-44
2021/12/09 05:06:34;;;;;;;11.88;8.05;;;;;;;3.33;100.00;94990.06;5009623;28;20504;-47
2021/12/09 05:09:09;;;;;;;13.70;9.32;;;;;;;3.54;100.00;94998.59;5026114;28;20061;-45
2021/12/09 05:11:48;;;;;;;14.35;9.60;;;;;;;3.43;100.00;94995.28;5020181;28;20065;-49
2021/12/09 05:14:18;;;;;;;13.57;9.07;;;;;;;3.49;100.00;94992.94;5009613;28;21866;-43
2021/12/09 05:16:48;;;;;;;13.82;9.30;;;;;;;3.47;100.00;95001.84;5017155;28;20077;-44
2021/12/09 05:19:17;;;;;;;13.95;9.60;;;;;;;3.62;100.00;95010.09;5013406;28;20076;-42
2021/12/09 05:21:45;;;;;;;15.13;9.90;;;;;;;3.68;100.00;95009.53;5018362;28;20450;-46
2021/12/09 05:24:16;;;;;;;14.05;9.98;;;;;;;3.77;100.00;95009.53;5023747;28;20724;-43
2021/12/09 05:26:47;;;;;;;;;;;;;;;3.75;100.00;95014.06;5014545;28;20080;-46
2021/12/09 05:29:17;;;;;;;13.23;9.38;;;;;;;3.83;100.00;95018.59;5011910;28;20382;-46
2021/12/09 05:34:33;;;;;;;14.27;10.05;;;;;;;3.73;100.00;95043.84;5019019;28;20087;-43
2021/12/09 05:37:01;;;;;;;12.13;9.30;;;;;;;3.61;100.00;95052.75;5020603;28;20081;-48
2021/12/09 05:39:31;;;;;;;15.70;10.55;;;;;;;3.79;100.00;95056.31;5018979;28;20100;-44
2021/12/09 05:41:59;;;;;;;15.82;9.73;;;;;;;3.69;100.00;95055.50;5011403;28;20065;-47
2021/12/09 05:44:28;;;;;;;13.45;9.35;;;;;;;3.65;100.00;95067.13;5003206;28;20086;-50
2021/12/09 05:46:56;;;;;;;14.10;10.20;;;;;;;3.92;100.00;95075.13;5000630;28;20067;-46
2021/12/09 05:49:25;;;;;;;17.05;9.32;;;;;;;3.81;100.00;95089.09;5013818;28;20092;-44
2021/12/09 05:51:53;;;;;;;13.77;9.57;;;;;;;3.91;100.00;95086.50;5022388;28;20622;-48
2021/12/09 05:54:22;;;;;;;12.77;8.82;;;;;;;3.79;100.00;95093.66;5015236;28;20064;-50
2021/12/09 05:56:52;;;;;;;13.50;9.52;;;;;;;4.12;100.00;95096.78;5014860;28;20475;-44
2021/12/09 05:59:20;;;;;;;13.90;9.23;;;;;;;3.89;100.00;95101.47;5028332;28;20070;-45
2021/12/09 06:01:49;;;;;;;12.90;9.10;;;;;;;3.99;100.00;95106.66;5023659;28;20534;-44
2021/12/09 06:04:18;;;;;;;12.07;9.30;;;;;;;3.93;100.00;95113.28;5022379;28;20440;-44
2021/12/09 06:06:47;;;;;;;12.80;8.98;;;;;;;3.99;100.00;95099.69;5032745;28;20073;-43
2021/12/09 06:09:15;;;;;;;14.00;8.65;;;;;;;4.27;100.00;95090.19;5012544;28;20072;-45
2021/12/09 06:11:46;;;;;;;12.00;9.10;;;;;;;4.33;100.00;95090.56;5013148;28;20451;-44
2021/12/09 06:14:16;;;;;;;12.20;9.13;;;;;;;4.42;100.00;95098.38;5017074;28;20062;-44
2021/12/09 06:16:45;;;;;;;13.45;8.90;;;;;;;4.47;100.00;95106.63;5010246;28;20073;-47
2021/12/09 06:19:13;;;;;;;12.52;8.30;;;;;;;4.41;100.00;95101.97;5026974;28;20077;-47
2021/12/09 06:21:42;;;;;;;11.27;8.60;;;;;;;4.59;100.00;95104.69;5021606;28;20569;-45
2021/12/09 06:24:11;;;;;;;11.70;8.90;;;;;;;4.62;100.00;95098.34;5011272;28;20057;-45
2021/12/09 06:26:39;;;;;;;12.77;8.98;;;;;;;4.53;100.00;95092.19;5029040;28;20068;-49
2021/12/09 06:29:08;;;;;;;12.60;8.50;;;;;;;4.43;100.00;95105.25;5010608;28;20065;-48
2021/12/09 06:31:37;;;;;;;14.35;8.63;;;;;;;4.57;100.00;95096.16;5005236;28;20092;-47
2021/12/09 06:34:06;;;;;;;12.82;9.20;;;;;;;4.35;100.00;95099.09;5021776;28;20069;-45
2021/12/09 06:36:34;;;;;;;12.57;9.07;;;;;;;4.46;100.00;95089.31;5009317;28;20467;-46
2021/12/09 06:39:05;;;;;;;12.35;8.65;;;;;;;4.33;100.00;95086.19;5018157;28;20386;-48
2021/12/09 06:41:34;;;;;;;12.93;8.77;;;;;;;4.36;100.00;95087.69;5019894;28;20092;-46
2021/12/09 06:44:03;;;;;;;11.95;8.90;;;;;;;4.42;100.00;95082.72;5010832;28;20065;-49
2021/12/09 06:46:31;;;;;;;12.52;9.18;;;;;;;4.43;100.00;95089.59;5015693;28;20090;-48
2021/12/09 06:49:02;;;;;;;13.05;8.77;;;;;;;4.40;100.00;95092.47;5016509;28;20065;-48
2021/12/09 06:51:30;;;;;;;13.82;9.30;;;;;;;4.46;100.00;95085.88;5012108;28;20069;-47
2021/12/09 06:53:59;;;;;;;15.98;9.73;;;;;;;4.49;100.00;95089.03;5020414;28;20096;-48
2021/12/09 06:56:30;;;;;;;11.63;8.70;;;;;;;4.36;100.00;95091.13;5010876;28;20093;-47
2021/12/09 06:58:58;;;;;;;12.85;8.98;;;;;;;4.34;100.00;95089.63;5015061;28;20076;-46
2021/12/09 07:01:37;;;;;;;13.00;8.63;;;;;;;4.35;100.00;95089.47;5025614;28;20484;-44
2021/12/09 07:04:09;;;;;;;;;;;;;;;4.17;100.00;95097.19;5017934;28;20076;-44
2021/12/09 07:06:38;;;;;;;13.23;8.77;;;;;;;4.43;100.00;95096.59;5008721;28;20415;-50
2021/12/09 07:09:07;;;;;;;11.65;8.77;;;;;;;4.26;100.00;95091.13;5020901;28;20437;-43
2021/12/09 07:11:44;;;;;;;13.20;9.35;;;;;;;4.30;100.00;95089.06;5009177;28;20061;-44
2021/12/09 07:14:13;;;;;;;13.27;9.40;;;;;;;4.41;100.00;95086.31;5018195;28;20314;-46
2021/12/09 07:16:41;;;;;;;14.85;9.80;;;;;;;4.11;100.00;95094.31;5021792;28;20060;-47
2021/12/09 07:19:11;;;;;;;13.15;9.32;;;;;;;4.31;100.00;95100.34;5014714;28;20468;-52
2021/12/09 07:21:40;;;;;;;14.90;9.88;;;;;;;4.28;100.00;95104.06;5020660;28;20057;-49
2021/12/09 07:24:13;;;;;;;14.10;9.77;;;;;;;3.99;100.00;95110.13;5024554;28;20117;-44
2021/12/09 07:26:42;;;;;;;15.50;10.02;;;;;;;4.41;100.00;95111.59;5015827;28;20076;-48
2021/12/09 07:29:10;;;;;;;13.50;9.73;;;;;;;4.22;100.00;95121.06;5012640;28;20672;-45
2021/12/09 07:31:39;;;;;;;14.57;10.07;;;;;;;4.14;100.00;95120.97;5013526;28;20066;-49
2021/12/09 07:34:07;;;;;;;16.77;10.30;;;;;;;4.18;100.00;95121.50;5009849;28;20093;-47
2021/12/09 07:36:37;;;;;;;14.38;10.38;;;;;;;4.07;100.00;95127.69;5027408;28;20069;-46
2021/12/09 07:39:06;;;;;;;14.57;10.48;;;;;;;4.12;100.00;95124.66;5016551;28;20068;-46
2021/12/09 07:41:35;;;;;;;15.65;10.15;;;;;;;4.62;100.00;95111.41;5017298;28;20073;-51
2021/12/09 07:44:05;;;;;;;15.13;10.02;;;;;;;4.56;100.00;95106.75;5024979;28;20076;-43
2021/12/09 07:46:35;;;;;;;14.55;10.02;;;;;;;4.54;100.00;95109.47;5007782;28;20081;-53
2021/12/09 07:49:06;;;;;;;13.52;9.38;;;;;;;4.61;100.00;95104.53;5032685;28;20080;-45
2021/12/09 07:51:34;;;;;;;14.60;10.20;;;;;;;4.42;100.00;95110.63;5017472;28;20065;-44
2021/12/09 07:54:04;;;;;;;12.98;9.43;;;;;;;4.48;100.00;95102.25;5018567;28;20077;-43
2021/12/09 07:56:33;;;;;;;13.32;9.43;;;;;;;4.37;100.00;95116.28;5024811;28;20451;-47
2021/12/09 07:59:01;;;;;;;15.10;9.75;;;;;;;4.47;100.00;95131.88;5016681;28;20091;-47
2021/12/09 08:01:30;;;;;;;12.52;9.13;;;;;;;4.03;100.00;95140.19;5006131;28;20447;-46
2021/12/09 08:04:01;;;;;;;13.88;9.75;;;;;;;4.31;100.00;95150.75;5020754;28;20758;-44
2021/12/09 08:06:29;;;;;;;11.98;9.45;;;;;;;3.89;100.00;95145.81;5010815;28;20062;-45
2021/12/09 08:08:58;;;;;;;14.55;9.90;;;;;;;4.41;100.00;95140.31;5016202;28;20081;-45
2021/12/09 08:11:28;;;;;;;12.55;9.18;;;;;;;4.31;100.00;95140.31;5029784;28;20069;-43
2021/12/09 08:13:56;;;;;;;13.48;9.70;;;;;;;3.95;100.00;95154.84;5013734;28;20061;-48
2021/12/09 08:16:25;;;;;;;13.68;9.38;;;;;;;4.10;100.00;95158.72;5027236;28;20089;-49
2021/12/09 08:18:56;;;;;;;12.73;9.50;;;;;;;4.16;100.00;95170.38;5014891;28;20092;-44
2021/12/09 08:21:26;;;;;;;12.52;9.52;;;;;;;4.21;100.00;95176.00;5014024;28;20413;-44
2021/12/09 08:23:55;;;;;;;14.68;8.73;;;;;;;4.07;100.00;95169.41;5021963;28;20665;-44
2021/12/09 08:26:26;;;;;;;12.18;8.73;;;;;;;4.18;100.00;95171.88;5016357;28;20069;-48
2021/12/09 08:28:56;;;;;;;11.48;8.20;;;;;;;4.20;100.00;95177.81;5011238;28;20076;-49
2021/12/09 08:31:26;;;;;;;13.07;9.20;;;;;;;4.18;100.00;95191.94;5026621;28;20088;-48
2021/12/09 08:33:54;;;;;;;;;;;;;;;4.03;100.00;95194.13;5017619;28;20092;-48
2021/12/09 08:36:43;;;;;;;10.10;7.60;;;;;;;3.84;100.00;95188.88;5014597;28;20391;-47
2021/12/09 08:39:11;;;;;;;10.80;8.10;;;;;;;4.13;100.00;95184.53;5025633;28;20067;-43
2021/12/09 08:41:40;;;;;;;15.23;8.02;;;;;;;3.95;100.00;95191.34;5008194;28;20069;-45
2021/12/09 08:44:10;;;;;;;12.05;8.82;;;;;;;4.03;100.00;95189.72;5023174;28;20080;-44
2021/12/09 08:46:38;;;;;;;10.95;8.27;;;;;;;4.09;100.00;95177.09;5007145;28;20088;-45
2021/12/09 08:49:08;;;;;;;13.02;8.45;;;;;;;4.00;100.00;95179.56;5016372;28;20065;-46
2021/12/09 08:51:37;;;;;;;9.35;6.97;;;;;;;3.84;100.00;95186.28;5012147;28;20053;-48
2021/12/09 08:54:06;;;;;;;12.50;8.23;;;;;;;3.85;100.00;95196.56;5013509;28;20076;-43
2021/12/09 08:56:36;;;;;;;10.13;7.70;;;;;;;3.79;100.00;95210.16;5010914;28;20076;-46
2021/12/09 08:59:06;;;;;;;9.52;7.00;;;;;;;3.96;100.00;95209.50;5007743;28;20061;-46
2021/12/09 09:01:36;;;;;;;10.15;7.13;;;;;;;3.83;100.00;95216.75;5016851;28;20072;-47
2021/12/09 09:04:05;;;;;;;10.32;7.35;;;;;;;3.93;100.00;95216.75;5012006;28;20061;-44
2021/12/09 09:06:34;;;;;;;10.98;7.78;;;;;;;3.88;100.00;95214.53;5017387;28;20092;-45
2021/12/09 09:09:05;;;;;;;8.20;7.00;;;;;;;3.76;100.00;95218.22;5013942;28;20464;-46
2021/12/09 09:11:33;;;;;;;12.13;7.75;;;;;;;4.08;100.00;95225.00;5023903;28;20070;-44
2021/12/09 09:14:02;;;;;;;9.43;7.25;;;;;;;3.72;100.00;95216.84;5014825;28;20561;-43
2021/12/09 09:16:31;;;;;;;9.32;7.00;;;;;;;3.85;100.00;95219.19;5011891;28;20516;-43
2021/12/09 09:19:00;;;;;;;9.70;7.00;;;;;;;3.80;100.00;95224.81;5019419;28;20132;-45
2021/12/09 09:21:29;;;;;;;9.05;7.07;;;;;;;4.10;100.00;95241.38;5018621;28;20108;-47
2021/12/09 09:23:57;;;;;;;7.88;6.63;;;;;;;3.70;100.00;95240.44;5011412;28;20080;-45
2021/12/09 09:26:26;;;;;;;9.25;6.80;;;;;;;3.63;100.00;95234.09;5015380;28;20452;-45
2021/12/09 09:28:55;;;;;;;9.23;7.22;;;;;;;3.98;100.00;95238.03;5017548;28;20075;-47
2021/12/09 09:31:26;;;;;;;8.70;6.50;;;;;;;4.15;100.00;95233.94;5013615;28;20086;-43
2021/12/09 09:33:55;;;;;;;8.35;6.47;;;;;;;4.16;100.00;95241.63;5020811;28;20340;-45
2021/12/09 09:36:25;;;;;;;10.25;7.60;;;;;;;4.28;100.00;95244.94;4994200;28;20073;-43
2021/12/09 09:38:59;;;;;;;8.88;6.55;;;;;;;3.94;100.00;95239.28;5017118;28;20061;-47
2021/12/09 09:41:32;;;;;;;7.45;5.90;;;;;;;4.33;100.00;95227.09;5026556;28;20670;-49
2021/12/09 09:44:12;;;;;;;6.78;5.45;;;;;;;3.90;100.00;95230.88;5019280;28;20459;-45
2021/12/09 09:46:41;;;;;;;8.65;5.55;;;;;;;3.94;100.00;95234.88;5018228;28;20065;-47
2021/12/09 09:49:09;;;;;;;12.20;7.10;;;;;;;4.05;100.00;95234.75;5023015;28;20065;-47
2021/12/09 09:51:40;;;;;;;8.05;6.60;;;;;;;4.14;100.00;95240.94;5012328;28;20073;-45
2021/12/09 09:54:09;;;;;;;8.27;7.00;;;;;;;3.87;100.00;95230.34;5017923;28;20078;-45
2021/12/09 09:56:41;;;;;;;8.93;6.95;;;;;;;4.16;100.00;95240.81;5023752;28;20070;-45
2021/12/09 09:59:17;;;;;;;9.45;7.30;;;;;;;4.16;100.00;95238.19;5013589;28;20064;-48
2021/12/09 10:01:50;;;;;;;7.85;6.25;;;;;;;4.08;100.00;95232.84;5024157;28;20065;-44
2021/12/09 10:04:27;;;;;;;9.20;7.18;;;;;;;4.10;100.00;95236.16;5023851;28;20080;-44
2021/12/09 10:06:57;;;;;;;8.30;6.70;;;;;;;3.99;100.00;95237.91;5018999;28;20503;-47
2021/12/09 10:09:25;;;;;;;7.22;5.78;;;;;;;3.94;100.00;95240.09;5013640;28;20495;-44
2021/12/09 10:11:55;;;;;;;9.40;6.82;;;;;;;4.23;100.00;95237.53;5018918;28;20073;-44
2021/12/09 10:14:26;;;;;;;7.97;5.40;;;;;;;3.78;100.00;95235.38;5016369;28;20451;-44
2021/12/09 10:17:03;;;;;;;9.45;6.70;;;;;;;4.20;100.00;95232.59;5026113;28;20061;-47
2021/12/09 10:19:33;;;;;;;7.93;6.15;;;;;;;4.16;100.00;95231.19;5021984;28;20116;-49
2021/12/09 10:22:09;;;;;;;9.32;6.90;;;;;;;4.15;100.00;95242.59;5020315;28;20076;-45
2021/12/09 10:24:38;;;;;;;9.70;7.28;;;;;;;4.32;100.00;95230.66;5029879;28;20084;-44
2021/12/09 10:27:08;;;;;;;7.68;6.00;;;;;;;4.15;100.00;95239.16;5016070;28;20075;-46
2021/12/09 10:29:41;;;;;;;9.93;6.43;;;;;;;4.24;100.00;95238.34;5020902;28;20065;-44
2021/12/09 10:32:13;;;;;;;7.95;5.55;;;;;;;4.23;100.00;95240.16;5022013;28;20057;-49
2021/12/09 10:34:43;;;;;;;8.27;6.07;;;;;;;4.24;100.00;95243.59;5010964;28;20528;-48
2021/12/09 10:37:16;;;;;;;9.00;6.78;;;;;;;4.33;100.00;95236.69;5019269;28;20456;-45
2021/12/09 10:39:48;;;;;;;9.80;6.43;;;;;;;4.35;100.00;95250.47;5015400;28;20530;-47
2021/12/09 10:42:19;;;;;;;8.95;6.28;;;;;;;4.32;100.00;95241.09;5012711;28;20050;-47
2021/12/09 10:44:54;;;;;;;6.80;4.97;;;;;;;4.19;100.00;95240.53;5020178;28;20065;-45
2021/12/09 10:47:45;;;;;;;8.48;5.60;;;;;;;4.28;100.00;95237.94;5028651;28;20064;-46
2021/12/09 10:50:23;;;;;;;8.45;6.38;;;;;;;4.33;100.00;95240.13;5020479;28;20065;-47
2021/12/09 10:52:58;;;;;;;10.27;8.15;;;;;;;4.45;100.00;95246.88;5021574;28;20071;-46
2021/12/09 10:55:29;;;;;;;9.98;7.00;;;;;;;4.21;100.00;95249.06;5024771;28;20071;-47
2021/12/09 10:58:01;;;;;;;11.57;6.28;;;;;;;4.35;100.00;95248.66;5014621;28;20080;-47
2021/12/09 11:00:36;;;;;;;6.80;5.10;;;;;;;4.26;100.00;95252.06;5021520;28;20070;-47
2021/12/09 11:03:11;;;;;;;11.10;7.82;;;;;;;4.59;100.00;95248.25;5022756;28;20069;-43
2021/12/09 11:05:42;;;;;;;12.63;8.18;;;;;;;4.41;100.00;95252.53;5013414;28;20072;-46
2021/12/09 11:08:21;;;;;;;12.80;7.88;;;;;;;4.60;100.00;95254.31;5016508;28;20058;-47
2021/12/09 11:10:56;;;;;;;10.02;6.25;;;;;;;4.45;100.00;95251.28;5021914;28;20161;-45
2021/12/09 11:13:26;;;;;;;10.57;8.27;;;;;;;4.46;100.00;95247.72;5009131;28;20171;-47
2021/12/09 11:15:57;;;;;;;11.98;8.95;;;;;;;4.59;100.00;95252.66;5024509;28;20069;-45
2021/12/09 11:18:36;;;;;;;12.18;8.13;;;;;;;4.39;100.00;95251.81;5018531;28;20525;-44
2021/12/09 11:21:08;;;;;;;9.07;6.28;;;;;;;4.41;100.00;95250.72;5013010;28;20049;-47
2021/12/09 11:23:42;;;;;;;16.48;9.27;;;;;;;4.59;100.00;95250.03;5024138;28;20069;-45
2021/12/09 11:26:33;;;;;;;11.32;7.70;;;;;;;4.52;100.00;95253.19;5011992;28;20463;-49
2021/12/09 11:29:06;;;;;;;13.88;8.20;;;;;;;4.36;100.00;95247.69;5010556;28;20072;-46
2021/12/09 11:31:39;;;;;;;11.32;7.15;;;;;;;4.56;100.00;95245.91;5015334;28;20131;-46
2021/12/09 11:34:13;;;;;;;14.82;9.63;;;;;;;4.69;100.00;95248.25;5017873;28;20077;-43
2021/12/09 11:36:52;;;;;;;11.85;8.23;;;;;;;4.64;100.00;95240.81;5013237;28;20076;-44
2021/12/09 11:39:29;;;;;;;14.85;8.77;;;;;;;4.76;100.00;95239.72;5023674;28;20069;-44
2021/12/09 11:42:15;;;;;;;12.43;8.23;;;;;;;4.20;100.00;95244.81;5027339;28;20065;-48